SBGL/GIG METAR and TAF weather

Enter ICAO airport designator
Station Type Date Time Source
SBGL METAR 2019/08/23 15:00 UTC NOAA

SBGL 231500Z 03004KT 9999 FEW020 BKN040 19/14 Q1021


Station Type Date Time Source
SBGL Decoded METAR 2019/08/23 15:00 UTC NOAA

Station name not available
Aug 23, 2019 - 11:00 AM EDT / 2019.08.23 1500 UTC
Wind: from the NNE (030 degrees) at 5 MPH (4 KT):0
Visibility: greater than 7 mile(s):0
Sky conditions: mostly cloudy
Temperature: 66 F (19 C)
Dew Point: 57 F (14 C)
Relative Humidity: 72%
Pressure (altimeter): 30.15 in. Hg (1021 hPa)
ob: SBGL 231500Z 03004KT 9999 FEW020 BKN040 19/14 Q1021
cycle: 15

Station Type Date Time Source
SBGL TAF 2019/08/23 12:09 UTC NOAA

TAF SBGL 230900Z 2312/2418 09005KT 7000 SCT017 BKN030 TX23/2318Z TN17/2409Z
BECMG 2313/2315 13007KT
TEMPO 2315/2321 09012KT 4000 RA BKN010
BECMG 2400/2402 06005KT BKN015 PROB40 2408/2412 4000 BR BKN013
BECMG 2414/2416 13010KT SCT017
RMK PGU

Example: see airport list